Time;durP1;ratioP1;P1;durP2;ratioP2;P2;SDS_P1;SDS_P2;PMS_P1;PMS_P2;Temp;Humidity;BMP_temperature;BMP_pressure;BME280_temperature;BME280_humidity;BME280_pressure;Samples;Min_cycle;Max_cycle;Signal;HPM_P1;HPM_P2
2021/03/30 00:00:51;;;;;;;10.27;4.03;;;11.70;85.90;;;;;;5042432;28;20203;-83
2021/03/30 00:03:17;;;;;;;8.70;5.00;;;11.70;86.00;;;;;;5059599;28;20168;-82
2021/03/30 00:05:42;;;;;;;10.03;5.40;;;11.60;86.10;;;;;;5041424;28;20469;-82
2021/03/30 00:08:08;;;;;;;6.77;4.70;;;11.60;86.10;;;;;;5059319;28;20218;-82
2021/03/30 00:10:37;;;;;;;10.40;5.23;;;11.60;86.10;;;;;;5041404;28;20767;-82
2021/03/30 00:13:04;;;;;;;11.00;5.57;;;11.60;86.20;;;;;;5041777;28;20431;-82
2021/03/30 00:15:30;;;;;;;9.57;5.20;;;11.50;86.30;;;;;;5040925;28;20513;-82
2021/03/30 00:17:55;;;;;;;9.47;4.97;;;11.50;86.40;;;;;;5040755;28;20504;-81
2021/03/30 00:20:21;;;;;;;20.27;4.80;;;11.50;86.40;;;;;;5040899;28;20192;-82
2021/03/30 00:22:47;;;;;;;9.03;4.97;;;11.50;86.50;;;;;;5040473;28;20176;-82
2021/03/30 00:25:13;;;;;;;11.33;5.27;;;11.40;86.50;;;;;;5040357;28;20208;-82
2021/03/30 00:27:39;;;;;;;9.97;5.30;;;11.40;86.60;;;;;;5039738;28;20180;-83
2021/03/30 00:30:07;;;;;;;10.80;4.80;;;11.40;86.60;;;;;;5036265;28;20449;-82
2021/03/30 00:32:33;;;;;;;8.90;4.70;;;11.30;86.80;;;;;;5058294;28;20182;-82
2021/03/30 00:34:58;;;;;;;11.93;5.43;;;11.20;86.90;;;;;;5039741;28;20442;-82
2021/03/30 00:37:24;;;;;;;11.53;5.00;;;11.20;87.00;;;;;;5038752;28;20656;-82
2021/03/30 00:39:50;;;;;;;9.37;5.83;;;11.20;87.20;;;;;;5029598;28;20572;-82
2021/03/30 00:42:24;;;;;;;11.53;5.50;;;11.10;87.30;;;;;;5019837;28;20670;-82
2021/03/30 00:44:51;;;;;;;12.00;5.10;;;11.10;87.30;;;;;;5037019;28;20219;-82
2021/03/30 00:47:20;;;;;;;12.37;5.40;;;11.10;87.40;;;;;;5019839;28;20416;-83
2021/03/30 00:49:48;;;;;;;10.07;5.40;;;11.10;87.50;;;;;;5018656;28;20467;-82
2021/03/30 00:52:14;;;;;;;11.20;5.40;;;11.10;87.40;;;;;;5018798;28;20423;-82
2021/03/30 00:54:39;;;;;;;12.90;6.13;;;11.10;87.40;;;;;;5019061;28;20522;-82
2021/03/30 00:57:06;;;;;;;20.47;5.80;;;11.10;87.50;;;;;;5019378;28;20194;-82
2021/03/30 00:59:31;;;;;;;9.67;5.60;;;11.00;87.60;;;;;;5019443;28;20267;-82
2021/03/30 01:01:58;;;;;;;11.63;5.67;;;11.00;87.70;;;;;;5018235;28;20439;-83
2021/03/30 01:04:24;;;;;;;8.70;5.97;;;10.90;87.90;;;;;;5018418;28;20283;-82
2021/03/30 01:06:50;;;;;;;21.23;6.23;;;10.90;88.00;;;;;;5018699;28;20854;-82
2021/03/30 01:09:57;;;;;;;10.37;5.80;;;10.80;88.10;;;;;;5018661;28;20649;-82
2021/03/30 01:12:31;;;;;;;13.20;5.30;;;10.80;88.30;;;;;;5002107;28;20181;-82
2021/03/30 01:15:08;;;;;;;14.70;5.70;;;10.70;88.60;;;;;;5036335;28;20419;-82
2021/03/30 01:17:53;;;;;;;11.80;5.83;;;10.60;88.80;;;;;;5018424;28;20406;-83
2021/03/30 01:20:22;;;;;;;8.00;4.77;;;10.60;89.00;;;;;;5019195;28;20443;-82
2021/03/30 01:23:29;;;;;;;11.53;5.60;;;10.50;89.30;;;;;;5018849;28;20571;-83
2021/03/30 01:26:08;;;;;;;12.70;5.90;;;10.30;89.40;;;;;;4920789;29;20435;-82
2021/03/30 01:28:56;;;;;;;14.67;5.17;;;10.20;89.90;;;;;;5025086;28;20425;-82
2021/03/30 01:31:24;;;;;;;14.90;5.50;;;10.10;90.10;;;;;;5018893;28;20547;-82
2021/03/30 01:33:52;;;;;;;9.30;5.63;;;10.10;90.30;;;;;;5018836;28;20404;-82
2021/03/30 01:36:20;;;;;;;10.40;5.20;;;10.10;90.50;;;;;;5036578;28;20454;-82
2021/03/30 01:38:46;;;;;;;11.53;5.93;;;10.00;90.60;;;;;;5035774;28;20582;-82
2021/03/30 01:41:12;;;;;;;15.63;5.93;;;10.00;90.60;;;;;;5018116;28;20426;-82
2021/03/30 01:43:38;;;;;;;12.60;5.47;;;10.00;90.60;;;;;;5018242;28;20419;-82
2021/03/30 01:46:04;;;;;;;12.17;5.90;;;10.00;90.90;;;;;;5018334;28;20673;-82
2021/03/30 01:48:31;;;;;;;12.40;5.90;;;9.90;91.10;;;;;;5017788;28;20423;-82
2021/03/30 01:50:57;;;;;;;12.63;5.63;;;9.90;91.30;;;;;;5018430;28;20471;-82
2021/03/30 01:53:25;;;;;;;8.73;4.90;;;9.80;91.60;;;;;;5035984;28;20414;-82
2021/03/30 01:55:55;;;;;;;10.40;4.70;;;9.70;91.90;;;;;;5036041;28;20848;-83
2021/03/30 01:58:23;;;;;;;10.10;5.60;;;9.50;92.10;;;;;;5018062;28;20422;-82
2021/03/30 02:00:50;;;;;;;11.90;5.57;;;9.40;92.30;;;;;;5017907;28;20446;-82
2021/03/30 02:03:19;;;;;;;8.73;5.10;;;9.30;92.80;;;;;;5018790;28;20419;-82
2021/03/30 02:05:45;;;;;;;14.57;5.00;;;9.20;93.60;;;;;;5035826;28;20438;-82
2021/03/30 02:08:12;;;;;;;10.37;5.77;;;9.10;93.70;;;;;;5018537;28;20791;-81
2021/03/30 02:13:12;;;;;;;11.63;5.27;;;8.90;94.20;;;;;;5035241;28;20433;-82
2021/03/30 02:15:38;;;;;;;11.63;5.10;;;8.90;94.20;;;;;;5039378;28;20451;-83
2021/03/30 02:18:08;;;;;;;8.50;5.67;;;8.90;94.50;;;;;;5021264;28;20416;-83
2021/03/30 02:20:45;;;;;;;10.67;5.47;;;8.80;94.50;;;;;;5021506;28;20433;-83
2021/03/30 02:23:24;;;;;;;15.93;6.53;;;8.80;94.30;;;;;;5021333;28;20422;-83
2021/03/30 02:25:54;;;;;;;11.80;5.10;;;8.70;94.40;;;;;;5021247;28;20430;-81
2021/03/30 02:28:24;;;;;;;12.97;5.97;;;8.60;94.60;;;;;;5021187;28;20403;-84
2021/03/30 02:30:50;;;;;;;10.23;5.37;;;8.50;94.80;;;;;;5019556;28;21002;-81
2021/03/30 02:33:22;;;;;;;14.90;5.33;;;8.50;95.10;;;;;;5020989;28;20419;-82
2021/03/30 02:35:57;;;;;;;13.57;6.00;;;8.50;95.30;;;;;;5020603;28;20529;-82
2021/03/30 02:38:24;;;;;;;10.20;6.03;;;8.40;95.50;;;;;;5020031;28;20423;-81
2021/03/30 02:40:51;;;;;;;10.87;5.80;;;8.40;95.70;;;;;;5037037;28;20419;-82
2021/03/30 02:43:19;;;;;;;12.67;5.87;;;8.30;95.70;;;;;;5020534;28;20415;-81
2021/03/30 02:45:46;;;;;;;11.80;5.97;;;8.30;95.90;;;;;;5020404;28;20463;-82
2021/03/30 02:48:12;;;;;;;11.13;5.60;;;8.20;96.40;;;;;;5038286;28;20418;-81
2021/03/30 02:50:40;;;;;;;10.60;5.30;;;8.10;96.30;;;;;;5040790;28;20534;-81
2021/03/30 02:53:07;;;;;;;12.23;6.13;;;8.00;96.40;;;;;;5040954;28;20182;-82
2021/03/30 02:55:33;;;;;;;12.40;6.03;;;7.90;96.60;;;;;;5041569;28;20488;-81
2021/03/30 02:58:00;;;;;;;11.33;5.63;;;7.80;96.90;;;;;;5079727;28;20423;-82
2021/03/30 03:00:26;;;;;;;12.63;5.67;;;7.70;97.10;;;;;;5062174;28;20540;-81
2021/03/30 03:02:55;;;;;;;12.40;6.23;;;7.70;97.20;;;;;;5062548;28;20418;-82
2021/03/30 03:05:21;;;;;;;13.67;6.33;;;7.70;97.30;;;;;;5052419;28;20506;-82
2021/03/30 03:07:48;;;;;;;13.97;6.43;;;7.60;97.30;;;;;;5044253;28;20474;-82
2021/03/30 03:10:14;;;;;;;9.00;5.27;;;7.50;97.30;;;;;;5051975;28;20462;-82
2021/03/30 03:12:42;;;;;;;10.87;5.37;;;7.50;97.30;;;;;;5039419;28;20425;-82
2021/03/30 03:15:11;;;;;;;11.27;5.13;;;7.50;97.30;;;;;;5038932;28;20632;-82
2021/03/30 03:17:37;;;;;;;19.20;5.90;;;7.50;97.30;;;;;;5039005;28;20536;-81
2021/03/30 03:20:05;;;;;;;12.50;6.00;;;7.40;97.30;;;;;;5038862;28;20433;-81
2021/03/30 03:22:31;;;;;;;19.80;5.47;;;7.30;97.30;;;;;;5039533;28;20502;-81
2021/03/30 03:24:57;;;;;;;9.90;5.23;;;7.30;97.30;;;;;;5038591;28;20899;-82
2021/03/30 03:27:23;;;;;;;10.70;6.50;;;7.20;97.30;;;;;;5039107;28;20926;-82
2021/03/30 03:29:48;;;;;;;14.13;5.43;;;7.20;97.30;;;;;;5038958;28;20458;-82
2021/03/30 03:32:14;;;;;;;14.13;5.70;;;7.20;97.30;;;;;;5056858;28;20232;-82
2021/03/30 03:34:42;;;;;;;12.90;5.43;;;7.10;97.30;;;;;;5038828;28;20559;-82
2021/03/30 03:37:07;;;;;;;11.90;6.17;;;7.10;97.30;;;;;;5038556;28;20640;-82
2021/03/30 03:39:33;;;;;;;13.80;6.50;;;7.10;97.30;;;;;;5038522;28;20428;-82
2021/03/30 03:41:59;;;;;;;15.90;8.03;;;7.00;97.30;;;;;;5056167;28;20409;-82
2021/03/30 03:44:27;;;;;;;11.37;6.87;;;7.00;97.30;;;;;;5038189;28;20954;-83
2021/03/30 03:46:53;;;;;;;9.30;5.90;;;6.90;97.30;;;;;;5059650;23;20590;-89
2021/03/30 03:49:23;;;;;;;14.63;8.30;;;6.90;97.30;;;;;;5036821;28;20439;-89
2021/03/30 03:52:00;;;;;;;13.63;8.37;;;6.90;97.30;;;;;;5036055;28;20430;-90
2021/03/30 03:54:28;;;;;;;13.50;7.27;;;6.80;97.30;;;;;;5036893;28;20406;-89
2021/03/30 03:57:15;;;;;;;12.60;6.80;;;6.80;97.30;;;;;;5035855;28;20438;-90
2021/03/30 03:59:44;;;;;;;14.80;6.73;;;6.80;97.30;;;;;;5036350;28;20567;-89
2021/03/30 04:02:13;;;;;;;12.00;7.47;;;6.70;97.30;;;;;;5035199;28;20485;-90
2021/03/30 04:05:05;;;;;;;11.93;7.20;;;6.70;97.30;;;;;;5036882;28;20430;-90
2021/03/30 04:07:48;;;;;;;11.43;7.83;;;6.60;97.30;;;;;;5035076;28;20434;-90
2021/03/30 04:10:23;;;;;;;11.40;6.33;;;6.60;97.30;;;;;;5035541;28;20474;-91
2021/03/30 04:12:51;;;;;;;15.17;7.10;;;6.50;97.30;;;;;;5034826;28;20407;-90
2021/03/30 04:15:18;;;;;;;17.40;7.50;;;6.50;97.30;;;;;;5034885;28;20432;-90
2021/03/30 04:17:44;;;;;;;18.17;7.30;;;6.40;97.30;;;;;;5035166;28;21018;-90
2021/03/30 04:20:15;;;;;;;17.90;7.47;;;6.40;97.30;;;;;;5036982;28;20423;-90
2021/03/30 04:22:42;;;;;;;18.03;6.47;;;6.40;97.30;;;;;;5036614;28;20408;-90
2021/03/30 04:25:09;;;;;;;13.43;7.00;;;6.30;97.30;;;;;;5035443;28;20482;-90
2021/03/30 04:27:34;;;;;;;24.03;9.00;;;6.30;97.30;;;;;;5034293;28;20515;-90
2021/03/30 04:30:00;;;;;;;20.97;8.80;;;6.20;97.30;;;;;;5034672;28;20534;-91
2021/03/30 04:32:26;;;;;;;13.23;7.20;;;6.20;97.30;;;;;;5041417;28;20183;-90
2021/03/30 04:34:52;;;;;;;17.73;6.70;;;6.20;97.30;;;;;;5038986;28;20271;-89
2021/03/30 04:37:17;;;;;;;13.27;7.03;;;6.10;97.30;;;;;;5049705;28;20172;-90
2021/03/30 04:39:43;;;;;;;9.33;6.30;;;6.10;97.30;;;;;;5041343;28;20755;-91
2021/03/30 04:42:09;;;;;;;11.57;7.40;;;6.10;97.30;;;;;;5053859;28;20176;-90
2021/03/30 04:44:35;;;;;;;10.60;6.47;;;6.10;97.30;;;;;;5053821;28;20591;-90
2021/03/30 04:47:00;;;;;;;14.47;7.10;;;6.00;97.30;;;;;;5053990;28;20785;-90
2021/03/30 04:49:26;;;;;;;12.87;6.63;;;5.90;97.30;;;;;;5044492;28;20215;-90
2021/03/30 04:51:52;;;;;;;12.27;6.67;;;5.90;97.30;;;;;;5041510;28;20268;-90
2021/03/30 04:54:17;;;;;;;14.20;6.63;;;5.90;97.30;;;;;;5034373;28;20575;-89
2021/03/30 04:56:43;;;;;;;12.10;6.60;;;5.80;97.30;;;;;;5034220;28;20199;-89
2021/03/30 04:59:09;;;;;;;15.80;6.30;;;5.80;97.30;;;;;;5034262;28;20254;-90
2021/03/30 05:01:34;;;;;;;10.73;5.70;;;5.80;97.30;;;;;;5032094;28;20180;-90
2021/03/30 05:04:00;;;;;;;12.67;7.40;;;5.80;97.30;;;;;;5032840;28;20649;-90
2021/03/30 05:06:26;;;;;;;16.27;7.30;;;5.80;97.30;;;;;;5042186;28;20438;-89
2021/03/30 05:08:52;;;;;;;15.30;6.03;;;5.70;97.30;;;;;;5037629;28;20572;-89
2021/03/30 05:11:17;;;;;;;14.13;6.50;;;5.80;97.30;;;;;;5032958;28;20235;-90
2021/03/30 05:13:43;;;;;;;12.97;6.43;;;5.70;97.30;;;;;;5032551;28;20419;-90
2021/03/30 05:16:13;;;;;;;11.23;6.40;;;5.70;97.30;;;;;;5032897;28;20188;-90
2021/03/30 05:18:41;;;;;;;12.47;6.30;;;5.70;97.30;;;;;;5032685;28;20168;-90
2021/03/30 05:21:07;;;;;;;12.40;6.77;;;5.60;97.30;;;;;;5033104;28;20419;-90
2021/03/30 05:23:35;;;;;;;16.07;7.10;;;5.60;97.30;;;;;;5030709;28;20429;-90
2021/03/30 05:26:01;;;;;;;11.70;6.57;;;5.60;97.30;;;;;;5048233;23;20585;-74
2021/03/30 05:28:26;;;;;;;9.53;5.87;;;5.60;97.30;;;;;;5052637;28;20914;-74
2021/03/30 05:30:52;;;;;;;17.77;6.80;;;5.60;97.30;;;;;;5070331;28;20234;-74
2021/03/30 05:33:18;;;;;;;15.93;6.40;;;5.60;97.30;;;;;;5052743;28;20171;-74
2021/03/30 05:35:44;;;;;;;11.93;5.90;;;5.70;97.30;;;;;;5052642;28;20441;-73
2021/03/30 05:38:11;;;;;;;14.17;6.57;;;5.70;97.30;;;;;;5052506;28;20789;-74
2021/03/30 05:40:36;;;;;;;12.53;6.50;;;5.70;97.30;;;;;;5052585;28;20857;-74
2021/03/30 05:43:02;;;;;;;11.57;5.87;;;5.70;97.30;;;;;;5070485;28;20406;-74
2021/03/30 05:45:29;;;;;;;15.13;6.80;;;5.80;97.30;;;;;;5070875;28;20175;-74
2021/03/30 05:47:57;;;;;;;15.17;6.37;;;5.80;97.30;;;;;;5037541;28;20479;-74
2021/03/30 05:50:24;;;;;;;11.17;6.20;;;5.90;97.30;;;;;;5032647;28;20450;-74
2021/03/30 05:53:02;;;;;;;17.23;8.37;;;5.90;97.30;;;;;;5032867;28;20446;-73
2021/03/30 05:55:30;;;;;;;13.20;6.53;;;6.00;97.30;;;;;;5032535;28;20886;-74
2021/03/30 05:57:58;;;;;;;12.17;6.87;;;6.00;97.30;;;;;;5032243;28;20420;-74
2021/03/30 06:00:28;;;;;;;14.90;7.00;;;6.10;97.30;;;;;;5032983;28;20426;-74
2021/03/30 06:02:56;;;;;;;20.23;8.20;;;6.10;97.30;;;;;;5032373;28;20453;-74
2021/03/30 06:05:23;;;;;;;16.80;7.50;;;6.30;97.30;;;;;;5032653;28;20421;-74
2021/03/30 06:07:52;;;;;;;22.37;7.83;;;6.40;97.30;;;;;;5032587;28;20430;-74
2021/03/30 06:10:21;;;;;;;16.37;7.07;;;6.50;97.30;;;;;;5050075;28;20462;-74
2021/03/30 06:12:47;;;;;;;12.70;6.63;;;6.60;97.30;;;;;;5050238;28;20923;-74
2021/03/30 06:15:14;;;;;;;16.20;6.47;;;6.70;97.30;;;;;;5032531;28;20473;-74
2021/03/30 06:17:45;;;;;;;12.13;7.60;;;6.80;97.30;;;;;;5032575;28;20202;-74
2021/03/30 06:20:34;;;;;;;12.20;6.20;;;6.90;97.30;;;;;;5031888;28;20515;-74
2021/03/30 06:23:05;;;;;;;16.23;7.47;;;7.00;97.30;;;;;;5050537;28;20411;-74
2021/03/30 06:25:40;;;;;;;13.33;6.03;;;7.20;97.30;;;;;;5032134;28;21223;-74
2021/03/30 06:28:27;;;;;;;14.60;7.07;;;7.40;97.30;;;;;;5032355;28;20453;-73
2021/03/30 06:31:09;;;;;;;13.43;6.63;;;7.60;97.30;;;;;;5032615;28;20540;-73
2021/03/30 06:33:56;;;;;;;12.97;6.20;;;7.90;97.30;;;;;;5049986;28;20958;-74
2021/03/30 06:36:32;;;;;;;10.77;6.63;;;8.10;97.30;;;;;;5050362;28;20445;-74
2021/03/30 06:39:04;;;;;;;16.47;6.53;;;8.40;97.30;;;;;;5032244;28;20410;-74
2021/03/30 06:41:44;;;;;;;18.40;6.30;;;8.80;97.30;;;;;;5031670;28;20994;-74
2021/03/30 06:44:25;;;;;;;15.17;6.60;;;9.00;97.30;;;;;;5032212;28;20402;-75
2021/03/30 06:47:14;;;;;;;18.37;6.43;;;9.40;96.80;;;;;;5050168;28;20422;-74
2021/03/30 06:50:17;;;;;;;18.63;6.80;;;9.70;96.40;;;;;;5031731;28;20410;-74
2021/03/30 06:52:42;;;;;;;16.70;6.10;;;10.00;94.50;;;;;;5019344;28;20468;-75
2021/03/30 06:55:14;;;;;;;20.03;6.63;;;10.30;94.50;;;;;;5031507;28;20471;-75
2021/03/30 06:57:45;;;;;;;11.80;6.27;;;10.60;91.50;;;;;;5032075;28;20176;-75
2021/03/30 07:00:18;;;;;;;17.77;6.90;;;10.80;91.80;;;;;;5032209;28;20423;-75
2021/03/30 07:02:53;;;;;;;11.00;5.87;;;11.00;91.50;;;;;;5035315;28;20504;-75
2021/03/30 07:05:33;;;;;;;13.40;6.23;;;11.20;90.60;;;;;;5035178;28;20410;-75
2021/03/30 07:08:04;;;;;;;10.80;6.00;;;11.40;90.00;;;;;;5035496;28;20418;-75
2021/03/30 07:10:32;;;;;;;15.23;6.60;;;11.50;89.10;;;;;;5053382;28;20438;-75
2021/03/30 07:12:58;;;;;;;15.30;6.30;;;11.70;88.70;;;;;;5035128;28;20414;-75
2021/03/30 07:15:25;;;;;;;20.23;7.30;;;11.90;87.70;;;;;;5035804;28;20475;-75
2021/03/30 07:18:01;;;;;;;12.27;6.20;;;12.10;88.30;;;;;;5053600;28;20163;-75
2021/03/30 07:20:31;;;;;;;12.70;5.47;;;12.20;87.10;;;;;;5034842;28;20444;-75
2021/03/30 07:23:00;;;;;;;12.20;5.57;;;12.40;86.60;;;;;;5035189;28;20429;-75
2021/03/30 07:25:27;;;;;;;12.00;6.17;;;12.50;86.80;;;;;;5035423;28;20462;-75
2021/03/30 07:28:00;;;;;;;14.70;6.07;;;12.60;85.00;;;;;;5035221;28;20425;-75
2021/03/30 07:30:27;;;;;;;12.03;6.40;;;12.80;84.80;;;;;;5052841;28;20490;-75
2021/03/30 07:33:09;;;;;;;14.57;6.17;;;12.90;85.40;;;;;;5035075;28;20636;-75
2021/03/30 07:35:38;;;;;;;16.27;7.27;;;13.00;84.50;;;;;;5053038;28;20426;-75
2021/03/30 07:38:17;;;;;;;17.53;5.70;;;13.20;84.70;;;;;;5034915;28;20415;-76
2021/03/30 07:40:44;;;;;;;15.37;6.80;;;13.40;83.10;;;;;;5035276;28;20954;-76
2021/03/30 07:43:13;;;;;;;14.23;6.13;;;13.50;82.70;;;;;;5034726;28;20418;-76
2021/03/30 07:45:43;;;;;;;18.60;6.40;;;13.60;82.00;;;;;;5034828;28;20417;-76
2021/03/30 07:48:15;;;;;;;16.13;7.00;;;13.70;81.80;;;;;;5070578;28;20413;-76
2021/03/30 07:50:48;;;;;;;19.80;7.23;;;13.90;82.80;;;;;;5054337;28;21034;-76
2021/03/30 07:53:54;;;;;;;19.60;7.60;;;14.10;81.60;;;;;;5054916;28;20441;-76
2021/03/30 07:56:26;;;;;;;14.60;6.97;;;14.20;81.50;;;;;;5054700;28;20420;-76
2021/03/30 07:58:54;;;;;;;17.07;7.37;;;14.40;79.30;;;;;;5054600;28;20424;-76
2021/03/30 08:01:22;;;;;;;17.37;6.73;;;14.40;79.20;;;;;;5054774;28;20438;-76
2021/03/30 08:03:50;;;;;;;14.10;7.07;;;14.50;78.70;;;;;;5054585;28;20425;-80
2021/03/30 08:06:18;;;;;;;19.53;7.47;;;14.60;78.10;;;;;;5054744;28;20414;-75
2021/03/30 08:08:50;;;;;;;14.63;6.40;;;14.70;78.10;;;;;;5072788;28;20414;-75
2021/03/30 08:11:17;;;;;;;11.60;6.23;;;14.90;78.40;;;;;;5054274;28;20457;-75
2021/03/30 08:13:52;;;;;;;17.30;7.37;;;15.10;77.70;;;;;;5054286;28;20413;-75
2021/03/30 08:16:19;;;;;;;13.37;6.80;;;15.30;78.40;;;;;;5054488;28;20414;-75
2021/03/30 08:18:47;;;;;;;10.53;6.17;;;15.50;79.00;;;;;;5054176;28;20489;-75
2021/03/30 08:21:20;;;;;;;12.60;7.03;;;15.70;77.90;;;;;;5053967;28;20444;-75
2021/03/30 08:23:52;;;;;;;15.00;6.93;;;16.00;77.40;;;;;;5072161;28;20785;-74
2021/03/30 08:26:30;;;;;;;13.37;6.53;;;16.20;75.70;;;;;;5053904;28;20461;-75
2021/03/30 08:29:00;;;;;;;16.63;7.27;;;16.30;74.30;;;;;;5072056;28;20785;-76
2021/03/30 08:31:49;;;;;;;15.20;7.50;;;16.40;73.80;;;;;;5053917;28;21147;-76
2021/03/30 08:34:22;;;;;;;14.27;7.27;;;16.60;73.80;;;;;;5072019;28;20818;-76
2021/03/30 08:36:56;;;;;;;11.50;6.27;;;16.70;73.10;;;;;;5054100;28;20410;-76
2021/03/30 08:39:21;;;;;;;16.17;7.27;;;16.80;72.10;;;;;;5053915;28;20418;-76
2021/03/30 08:41:47;;;;;;;14.60;7.40;;;16.80;72.10;;;;;;5053794;28;20807;-75
2021/03/30 08:44:20;;;;;;;15.50;7.80;;;17.00;72.00;;;;;;5053943;28;20179;-75
2021/03/30 08:46:52;;;;;;;20.83;7.80;;;17.10;72.40;;;;;;5048341;28;20722;-75
2021/03/30 08:49:35;;;;;;;17.60;7.70;;;17.30;71.60;;;;;;5034177;28;20411;-76
2021/03/30 08:52:00;;;;;;;14.93;7.07;;;17.40;71.00;;;;;;5033337;28;20442;-75
2021/03/30 08:54:34;;;;;;;18.53;7.00;;;17.40;70.90;;;;;;5034064;28;20403;-75
2021/03/30 08:57:05;;;;;;;11.40;6.40;;;17.70;72.20;;;;;;5034002;28;20168;-76
2021/03/30 08:59:31;;;;;;;14.53;6.90;;;17.80;71.00;;;;;;5033537;28;20803;-75
2021/03/30 09:02:05;;;;;;;18.47;8.10;;;18.00;70.60;;;;;;5051338;28;20426;-77
2021/03/30 09:04:33;;;;;;;15.50;7.60;;;18.10;71.00;;;;;;5033716;28;20176;-76
2021/03/30 09:06:59;;;;;;;16.00;6.93;;;18.30;70.60;;;;;;5051127;28;20415;-75
2021/03/30 09:09:33;;;;;;;18.00;7.97;;;18.40;70.40;;;;;;5033152;28;20433;-75
2021/03/30 09:11:59;;;;;;;10.90;7.27;;;18.60;70.20;;;;;;5033715;28;20218;-76
2021/03/30 09:14:25;;;;;;;19.37;7.70;;;18.80;69.20;;;;;;5033327;28;20418;-76
2021/03/30 09:16:51;;;;;;;29.83;8.33;;;18.90;69.40;;;;;;5032896;28;20456;-76
2021/03/30 09:19:30;;;;;;;15.00;7.10;;;18.90;67.90;;;;;;5033653;28;20411;-77
2021/03/30 09:21:59;;;;;;;16.40;7.83;;;18.80;70.00;;;;;;5051531;28;20479;-76
2021/03/30 09:24:37;;;;;;;20.80;8.93;;;18.70;67.60;;;;;;5032803;28;20919;-76
2021/03/30 09:27:04;;;;;;;14.17;8.40;;;18.70;67.30;;;;;;5032895;28;20480;-76
2021/03/30 09:29:38;;;;;;;15.20;8.30;;;18.90;68.10;;;;;;5032937;28;20501;-76
2021/03/30 09:32:08;;;;;;;18.53;9.30;;;19.10;68.20;;;;;;5032673;28;20477;-77
2021/03/30 09:34:41;;;;;;;17.33;8.30;;;19.40;68.50;;;;;;5033459;28;20930;-77
2021/03/30 09:37:06;;;;;;;20.23;7.87;;;19.40;66.50;;;;;;5050567;28;20403;-76
2021/03/30 09:39:35;;;;;;;16.73;8.73;;;19.40;67.90;;;;;;5032713;28;20402;-77
2021/03/30 09:42:01;;;;;;;21.23;10.57;;;19.60;66.30;;;;;;5032915;28;20753;-77
2021/03/30 09:44:33;;;;;;;18.40;10.00;;;19.60;65.40;;;;;;5032915;28;20493;-76
2021/03/30 09:46:59;;;;;;;22.37;11.13;;;19.60;65.50;;;;;;5046899;23;20309;-72
2021/03/30 09:49:26;;;;;;;20.33;10.90;;;19.80;65.50;;;;;;5050568;28;20431;-71
2021/03/30 09:51:53;;;;;;;22.43;10.90;;;19.90;65.30;;;;;;5019715;28;20212;-72
2021/03/30 09:54:24;;;;;;;18.10;11.10;;;20.00;65.80;;;;;;5017008;28;20426;-71
2021/03/30 09:57:01;;;;;;;22.07;11.60;;;20.00;64.40;;;;;;5033946;28;20448;-71
2021/03/30 09:59:28;;;;;;;20.53;10.70;;;20.00;64.20;;;;;;5032049;28;20449;-71
2021/03/30 10:01:55;;;;;;;26.27;11.30;;;20.10;64.30;;;;;;5030585;28;20939;-71
2021/03/30 10:04:27;;;;;;;19.17;8.73;;;20.10;63.60;;;;;;5012888;28;20422;-71
2021/03/30 10:06:53;;;;;;;20.67;10.53;;;20.20;63.70;;;;;;5013356;28;20430;-72
2021/03/30 10:09:20;;;;;;;23.73;11.60;;;20.20;63.90;;;;;;5013125;28;20943;-72
2021/03/30 10:11:48;;;;;;;18.83;9.90;;;20.20;63.60;;;;;;5030335;28;20530;-71
2021/03/30 10:14:18;;;;;;;20.47;9.87;;;20.30;62.50;;;;;;5030700;28;20415;-71
2021/03/30 10:16:45;;;;;;;16.63;10.77;;;20.50;63.20;;;;;;5012869;28;20932;-72
2021/03/30 10:19:15;;;;;;;16.30;10.70;;;20.70;64.40;;;;;;5012761;28;20855;-72
2021/03/30 10:21:42;;;;;;;17.50;9.87;;;20.90;62.70;;;;;;5030309;28;20442;-72
2021/03/30 10:24:13;;;;;;;34.07;10.90;;;21.00;63.20;;;;;;5012848;28;20489;-73
2021/03/30 10:26:39;;;;;;;25.63;10.80;;;21.00;62.40;;;;;;5012460;28;20411;-73
2021/03/30 10:29:10;;;;;;;17.60;9.50;;;21.00;62.80;;;;;;5013001;28;20411;-72
2021/03/30 10:34:33;;;;;;;20.20;10.00;;;21.10;61.20;;;;;;5030297;28;20411;-72
2021/03/30 10:37:02;;;;;;;19.63;10.37;;;20.90;61.00;;;;;;5013313;28;20411;-72
2021/03/30 10:39:30;;;;;;;15.20;10.00;;;20.90;62.70;;;;;;5016613;28;20916;-72
2021/03/30 10:42:27;;;;;;;27.07;10.70;;;21.10;62.20;;;;;;5016241;28;20449;-72
2021/03/30 10:44:58;;;;;;;18.60;10.00;;;21.20;61.50;;;;;;5013183;28;20494;-72
2021/03/30 10:47:29;;;;;;;19.33;10.37;;;21.20;60.20;;;;;;5023158;28;20976;-72
2021/03/30 10:49:55;;;;;;;18.80;10.20;;;21.00;60.90;;;;;;4996399;28;20793;-72
2021/03/30 10:52:24;;;;;;;22.40;10.47;;;21.10;60.90;;;;;;4996516;28;20463;-75
2021/03/30 10:54:52;;;;;;;21.40;11.27;;;21.20;61.90;;;;;;4996789;28;20862;-72
2021/03/30 10:57:19;;;;;;;17.50;11.17;;;21.40;61.20;;;;;;4996239;28;20793;-72
2021/03/30 10:59:46;;;;;;;22.53;10.87;;;21.30;60.90;;;;;;4996871;28;20412;-73
2021/03/30 11:02:13;;;;;;;21.07;10.40;;;21.50;62.90;;;;;;5027420;28;20547;-71
2021/03/30 11:04:40;;;;;;;20.90;11.40;;;21.70;62.20;;;;;;5029711;28;20400;-71
2021/03/30 11:07:06;;;;;;;18.20;10.70;;;21.50;61.10;;;;;;5036409;28;20408;-71
2021/03/30 11:09:34;;;;;;;21.07;11.40;;;21.70;62.00;;;;;;5007850;28;20452;-72
2021/03/30 11:12:00;;;;;;;19.57;10.73;;;21.90;61.20;;;;;;5021854;28;20528;-73
2021/03/30 11:14:27;;;;;;;19.90;9.93;;;21.90;61.60;;;;;;5014958;28;20461;-71
2021/03/30 11:16:53;;;;;;;19.10;11.70;;;22.00;61.70;;;;;;5016123;28;20423;-71
2021/03/30 11:19:19;;;;;;;25.30;11.53;;;22.20;61.20;;;;;;5015855;28;20506;-71
2021/03/30 11:21:46;;;;;;;22.93;10.70;;;22.20;61.50;;;;;;5033319;28;20486;-71
2021/03/30 11:24:17;;;;;;;25.33;11.53;;;22.20;62.60;;;;;;5030696;28;20464;-71
2021/03/30 11:26:46;;;;;;;17.20;10.23;;;22.20;61.30;;;;;;5007524;28;20795;-72
2021/03/30 11:29:19;;;;;;;19.37;11.10;;;22.40;63.70;;;;;;5013018;28;20518;-72
2021/03/30 11:32:02;;;;;;;22.60;11.33;;;22.60;63.40;;;;;;5023886;28;20463;-72
2021/03/30 11:34:35;;;;;;;19.13;10.30;;;22.80;62.60;;;;;;5021410;28;20783;-71
2021/03/30 11:39:36;;;;;;;24.17;10.10;;;22.80;62.40;;;;;;5033544;28;20403;-71
2021/03/30 11:42:02;;;;;;;20.63;11.20;;;22.90;62.70;;;;;;5034425;28;20557;-71
2021/03/30 11:44:28;;;;;;;21.63;10.30;;;23.10;62.50;;;;;;5015699;28;20783;-72
2021/03/30 11:46:54;;;;;;;18.17;9.10;;;22.80;58.90;;;;;;5007792;28;20542;-71
2021/03/30 11:49:20;;;;;;;15.20;9.20;;;22.70;59.00;;;;;;5030046;28;20201;-71
2021/03/30 11:51:46;;;;;;;17.07;9.50;;;22.80;58.40;;;;;;5001305;28;20201;-71
2021/03/30 11:54:12;;;;;;;15.27;8.37;;;23.00;57.70;;;;;;5013621;28;20408;-71
2021/03/30 11:56:37;;;;;;;20.53;8.80;;;23.00;56.60;;;;;;5014275;28;20904;-71
2021/03/30 11:59:03;;;;;;;19.47;10.50;;;23.20;57.40;;;;;;5025312;28;20173;-71
2021/03/30 12:01:29;;;;;;;25.97;10.57;;;23.00;58.50;;;;;;5015007;28;20228;-71
2021/03/30 12:03:55;;;;;;;17.57;9.67;;;23.00;58.30;;;;;;5025275;28;20211;-71
2021/03/30 12:06:21;;;;;;;19.90;9.90;;;23.20;58.20;;;;;;5000358;28;20181;-72
2021/03/30 12:08:46;;;;;;;14.80;9.63;;;23.40;58.60;;;;;;5015255;28;20431;-71
2021/03/30 12:11:12;;;;;;;17.43;8.80;;;23.50;56.90;;;;;;5012530;28;20651;-71
2021/03/30 12:13:40;;;;;;;15.00;9.00;;;23.50;56.90;;;;;;5008589;28;20172;-71
2021/03/30 12:16:05;;;;;;;22.53;10.70;;;23.40;57.70;;;;;;5032202;28;20176;-73
2021/03/30 12:18:31;;;;;;;20.77;10.93;;;23.60;57.00;;;;;;5014484;28;20426;-73
2021/03/30 12:20:57;;;;;;;23.90;12.27;;;23.80;57.50;;;;;;5012751;28;20192;-73
2021/03/30 12:23:23;;;;;;;16.47;9.97;;;23.70;57.90;;;;;;4996249;28;20940;-73
2021/03/30 12:25:49;;;;;;;18.93;10.50;;;23.90;58.60;;;;;;4994980;28;20670;-73
2021/03/30 12:28:15;;;;;;;18.77;11.10;;;23.90;56.80;;;;;;5002863;28;20276;-73
2021/03/30 12:30:42;;;;;;;18.93;10.33;;;24.10;57.00;;;;;;5021944;28;20642;-71
2021/03/30 12:33:08;;;;;;;23.70;11.40;;;24.10;57.60;;;;;;5007005;28;20414;-71
2021/03/30 12:35:34;;;;;;;17.13;9.77;;;24.00;56.90;;;;;;5020958;28;20435;-73
2021/03/30 12:38:00;;;;;;;18.43;9.87;;;24.10;57.90;;;;;;5021459;28;20863;-74
2021/03/30 12:40:25;;;;;;;18.90;10.20;;;24.40;57.60;;;;;;4997279;28;20444;-73
2021/03/30 12:42:51;;;;;;;19.00;9.80;;;24.40;56.90;;;;;;5012117;28;20653;-73
2021/03/30 12:45:19;;;;;;;22.67;10.93;;;24.40;56.90;;;;;;5004729;28;20187;-73
2021/03/30 12:47:46;;;;;;;22.67;11.83;;;24.30;57.00;;;;;;4999085;28;20289;-72
2021/03/30 12:50:13;;;;;;;17.30;9.63;;;24.60;58.50;;;;;;5013641;28;20498;-71
2021/03/30 12:52:41;;;;;;;19.93;10.83;;;24.60;56.50;;;;;;5006505;28;20467;-72
2021/03/30 12:55:09;;;;;;;16.73;9.50;;;25.00;55.90;;;;;;5014665;28;20415;-73
2021/03/30 12:57:36;;;;;;;19.13;9.17;;;25.00;55.60;;;;;;5007957;28;20412;-73
2021/03/30 13:00:04;;;;;;;17.07;9.40;;;25.10;56.60;;;;;;5018045;28;20820;-74